sensor_id;sensor_type;location;lat;lon;timestamp;P1;durP1;ratioP1;P2;durP2;ratioP2
10232;SDS011;5161;48.174;11.756;2023-10-19T00:00:38;22.47;;;19.43;;
10232;SDS011;5161;48.174;11.756;2023-10-19T00:03:15;26.93;;;19.43;;
10232;SDS011;5161;48.174;11.756;2023-10-19T00:05:44;23.10;;;19.17;;
10232;SDS011;5161;48.174;11.756;2023-10-19T00:08:10;23.97;;;19.90;;
10232;SDS011;5161;48.174;11.756;2023-10-19T00:10:55;24.27;;;19.60;;
10232;SDS011;5161;48.174;11.756;2023-10-19T00:13:28;23.20;;;19.43;;
10232;SDS011;5161;48.174;11.756;2023-10-19T00:15:55;23.87;;;19.53;;
10232;SDS011;5161;48.174;11.756;2023-10-19T00:18:22;21.87;;;18.53;;
10232;SDS011;5161;48.174;11.756;2023-10-19T00:20:52;24.20;;;19.17;;
10232;SDS011;5161;48.174;11.756;2023-10-19T00:23:23;26.73;;;18.63;;
10232;SDS011;5161;48.174;11.756;2023-10-19T00:25:57;23.27;;;19.63;;
10232;SDS011;5161;48.174;11.756;2023-10-19T00:28:24;26.13;;;19.97;;
10232;SDS011;5161;48.174;11.756;2023-10-19T00:30:53;23.37;;;19.13;;
10232;SDS011;5161;48.174;11.756;2023-10-19T00:33:24;22.73;;;19.50;;
10232;SDS011;5161;48.174;11.756;2023-10-19T00:35:53;24.57;;;20.30;;
10232;SDS011;5161;48.174;11.756;2023-10-19T00:38:26;24.77;;;19.73;;
10232;SDS011;5161;48.174;11.756;2023-10-19T00:40:56;23.67;;;19.30;;
10232;SDS011;5161;48.174;11.756;2023-10-19T00:43:32;22.77;;;19.33;;
10232;SDS011;5161;48.174;11.756;2023-10-19T00:46:16;23.17;;;19.20;;
10232;SDS011;5161;48.174;11.756;2023-10-19T00:48:51;23.10;;;19.73;;
10232;SDS011;5161;48.174;11.756;2023-10-19T00:51:44;23.90;;;19.43;;
10232;SDS011;5161;48.174;11.756;2023-10-19T00:54:27;24.03;;;20.13;;
10232;SDS011;5161;48.174;11.756;2023-10-19T00:56:59;25.63;;;20.23;;
10232;SDS011;5161;48.174;11.756;2023-10-19T00:59:36;21.87;;;19.30;;
10232;SDS011;5161;48.174;11.756;2023-10-19T01:02:13;24.87;;;20.83;;
10232;SDS011;5161;48.174;11.756;2023-10-19T01:04:47;26.33;;;20.70;;
10232;SDS011;5161;48.174;11.756;2023-10-19T01:07:32;25.43;;;20.07;;
10232;SDS011;5161;48.174;11.756;2023-10-19T01:10:03;28.20;;;21.23;;
10232;SDS011;5161;48.174;11.756;2023-10-19T01:12:45;24.77;;;20.10;;
10232;SDS011;5161;48.174;11.756;2023-10-19T01:17:44;25.90;;;20.63;;
10232;SDS011;5161;48.174;11.756;2023-10-19T01:20:14;25.83;;;20.67;;
10232;SDS011;5161;48.174;11.756;2023-10-19T01:22:54;25.03;;;20.93;;
10232;SDS011;5161;48.174;11.756;2023-10-19T01:26:17;26.30;;;20.27;;
10232;SDS011;5161;48.174;11.756;2023-10-19T01:28:26;25.50;;;20.70;;
10232;SDS011;5161;48.174;11.756;2023-10-19T01:31:12;26.77;;;21.00;;
10232;SDS011;5161;48.174;11.756;2023-10-19T01:33:56;24.57;;;20.53;;
10232;SDS011;5161;48.174;11.756;2023-10-19T01:36:26;28.67;;;21.73;;
10232;SDS011;5161;48.174;11.756;2023-10-19T01:38:52;28.57;;;20.87;;
10232;SDS011;5161;48.174;11.756;2023-10-19T01:41:20;24.53;;;20.87;;
10232;SDS011;5161;48.174;11.756;2023-10-19T01:43:48;26.33;;;21.27;;
10232;SDS011;5161;48.174;11.756;2023-10-19T01:46:18;25.30;;;20.60;;
10232;SDS011;5161;48.174;11.756;2023-10-19T01:48:49;25.23;;;20.73;;
10232;SDS011;5161;48.174;11.756;2023-10-19T01:51:20;26.53;;;21.50;;
10232;SDS011;5161;48.174;11.756;2023-10-19T01:53:48;24.27;;;20.47;;
10232;SDS011;5161;48.174;11.756;2023-10-19T01:56:15;25.37;;;20.27;;
10232;SDS011;5161;48.174;11.756;2023-10-19T01:58:42;23.90;;;20.67;;
10232;SDS011;5161;48.174;11.756;2023-10-19T02:01:11;25.30;;;21.13;;
10232;SDS011;5161;48.174;11.756;2023-10-19T02:03:37;23.83;;;20.17;;
10232;SDS011;5161;48.174;11.756;2023-10-19T02:06:07;24.00;;;20.17;;
10232;SDS011;5161;48.174;11.756;2023-10-19T02:08:59;25.87;;;20.17;;
10232;SDS011;5161;48.174;11.756;2023-10-19T02:11:34;25.70;;;20.80;;
10232;SDS011;5161;48.174;11.756;2023-10-19T02:14:03;24.10;;;20.80;;
10232;SDS011;5161;48.174;11.756;2023-10-19T02:16:39;23.47;;;20.27;;
10232;SDS011;5161;48.174;11.756;2023-10-19T02:19:06;25.53;;;20.87;;
10232;SDS011;5161;48.174;11.756;2023-10-19T02:21:31;24.13;;;19.90;;
10232;SDS011;5161;48.174;11.756;2023-10-19T02:23:58;26.20;;;21.57;;
10232;SDS011;5161;48.174;11.756;2023-10-19T02:26:23;26.20;;;21.23;;
10232;SDS011;5161;48.174;11.756;2023-10-19T02:28:53;25.17;;;20.17;;
10232;SDS011;5161;48.174;11.756;2023-10-19T02:31:19;25.50;;;21.00;;
10232;SDS011;5161;48.174;11.756;2023-10-19T02:33:52;26.00;;;20.53;;
10232;SDS011;5161;48.174;11.756;2023-10-19T02:36:24;28.37;;;20.50;;
10232;SDS011;5161;48.174;11.756;2023-10-19T02:38:55;24.30;;;20.20;;
10232;SDS011;5161;48.174;11.756;2023-10-19T02:41:23;25.43;;;21.43;;
10232;SDS011;5161;48.174;11.756;2023-10-19T02:43:49;26.50;;;21.33;;
10232;SDS011;5161;48.174;11.756;2023-10-19T02:46:34;24.93;;;20.57;;
10232;SDS011;5161;48.174;11.756;2023-10-19T02:49:07;24.97;;;20.37;;
10232;SDS011;5161;48.174;11.756;2023-10-19T02:51:53;28.53;;;21.50;;
10232;SDS011;5161;48.174;11.756;2023-10-19T02:54:20;23.97;;;20.80;;
10232;SDS011;5161;48.174;11.756;2023-10-19T02:56:50;27.50;;;21.47;;
10232;SDS011;5161;48.174;11.756;2023-10-19T02:59:22;27.40;;;21.63;;
10232;SDS011;5161;48.174;11.756;2023-10-19T03:01:52;25.70;;;21.27;;
10232;SDS011;5161;48.174;11.756;2023-10-19T03:04:26;26.30;;;21.10;;
10232;SDS011;5161;48.174;11.756;2023-10-19T03:06:53;26.10;;;21.00;;
10232;SDS011;5161;48.174;11.756;2023-10-19T03:09:21;27.90;;;21.60;;
10232;SDS011;5161;48.174;11.756;2023-10-19T03:11:49;30.23;;;21.90;;
10232;SDS011;5161;48.174;11.756;2023-10-19T03:14:20;26.23;;;20.87;;
10232;SDS011;5161;48.174;11.756;2023-10-19T03:16:49;24.13;;;20.47;;
10232;SDS011;5161;48.174;11.756;2023-10-19T03:19:15;26.00;;;20.60;;
10232;SDS011;5161;48.174;11.756;2023-10-19T03:21:41;25.83;;;19.87;;
10232;SDS011;5161;48.174;11.756;2023-10-19T03:24:11;25.13;;;21.00;;
10232;SDS011;5161;48.174;11.756;2023-10-19T03:26:38;26.90;;;20.70;;
10232;SDS011;5161;48.174;11.756;2023-10-19T03:29:05;26.30;;;20.70;;
10232;SDS011;5161;48.174;11.756;2023-10-19T03:31:37;25.90;;;20.63;;
10232;SDS011;5161;48.174;11.756;2023-10-19T03:34:10;22.73;;;20.20;;
10232;SDS011;5161;48.174;11.756;2023-10-19T03:36:41;22.77;;;19.60;;
10232;SDS011;5161;48.174;11.756;2023-10-19T03:39:07;24.10;;;19.87;;
10232;SDS011;5161;48.174;11.756;2023-10-19T03:41:37;23.73;;;20.20;;
10232;SDS011;5161;48.174;11.756;2023-10-19T03:44:07;26.73;;;20.53;;
10232;SDS011;5161;48.174;11.756;2023-10-19T03:46:39;23.43;;;20.00;;
10232;SDS011;5161;48.174;11.756;2023-10-19T03:49:18;25.07;;;20.27;;
10232;SDS011;5161;48.174;11.756;2023-10-19T03:51:47;23.67;;;19.77;;
10232;SDS011;5161;48.174;11.756;2023-10-19T03:54:32;23.60;;;19.83;;
10232;SDS011;5161;48.174;11.756;2023-10-19T03:56:58;25.30;;;20.57;;
10232;SDS011;5161;48.174;11.756;2023-10-19T03:59:30;23.60;;;19.83;;
10232;SDS011;5161;48.174;11.756;2023-10-19T04:01:59;25.77;;;20.47;;
10232;SDS011;5161;48.174;11.756;2023-10-19T04:04:25;23.03;;;19.67;;
10232;SDS011;5161;48.174;11.756;2023-10-19T04:06:51;24.10;;;19.70;;
10232;SDS011;5161;48.174;11.756;2023-10-19T04:09:24;24.90;;;19.40;;
10232;SDS011;5161;48.174;11.756;2023-10-19T04:11:57;22.60;;;18.83;;
10232;SDS011;5161;48.174;11.756;2023-10-19T04:14:22;23.07;;;18.50;;
10232;SDS011;5161;48.174;11.756;2023-10-19T04:16:48;21.93;;;18.23;;
10232;SDS011;5161;48.174;11.756;2023-10-19T04:19:14;21.13;;;17.77;;
10232;SDS011;5161;48.174;11.756;2023-10-19T04:21:41;21.63;;;17.90;;
10232;SDS011;5161;48.174;11.756;2023-10-19T04:24:11;19.50;;;16.77;;
10232;SDS011;5161;48.174;11.756;2023-10-19T04:26:38;21.20;;;17.03;;
10232;SDS011;5161;48.174;11.756;2023-10-19T04:29:04;22.33;;;17.83;;
10232;SDS011;5161;48.174;11.756;2023-10-19T04:31:38;22.10;;;17.47;;
10232;SDS011;5161;48.174;11.756;2023-10-19T04:34:15;21.63;;;17.57;;
10232;SDS011;5161;48.174;11.756;2023-10-19T04:36:45;22.60;;;17.70;;
10232;SDS011;5161;48.174;11.756;2023-10-19T04:39:11;21.37;;;17.63;;
10232;SDS011;5161;48.174;11.756;2023-10-19T04:41:39;20.03;;;17.17;;
10232;SDS011;5161;48.174;11.756;2023-10-19T04:44:05;23.47;;;17.73;;
10232;SDS011;5161;48.174;11.756;2023-10-19T04:46:33;20.67;;;17.07;;
10232;SDS011;5161;48.174;11.756;2023-10-19T04:48:59;20.90;;;17.27;;
10232;SDS011;5161;48.174;11.756;2023-10-19T04:51:25;18.50;;;16.43;;
10232;SDS011;5161;48.174;11.756;2023-10-19T04:53:50;22.70;;;17.87;;
10232;SDS011;5161;48.174;11.756;2023-10-19T04:56:16;21.20;;;16.47;;
10232;SDS011;5161;48.174;11.756;2023-10-19T04:58:42;22.57;;;17.27;;
10232;SDS011;5161;48.174;11.756;2023-10-19T05:01:07;21.00;;;16.60;;
10232;SDS011;5161;48.174;11.756;2023-10-19T05:03:36;20.97;;;17.33;;
10232;SDS011;5161;48.174;11.756;2023-10-19T05:06:02;21.83;;;17.00;;
10232;SDS011;5161;48.174;11.756;2023-10-19T05:08:28;22.07;;;16.70;;
10232;SDS011;5161;48.174;11.756;2023-10-19T05:10:54;22.53;;;16.33;;
10232;SDS011;5161;48.174;11.756;2023-10-19T05:13:21;23.40;;;17.20;;
10232;SDS011;5161;48.174;11.756;2023-10-19T05:15:55;20.23;;;16.43;;
10232;SDS011;5161;48.174;11.756;2023-10-19T05:18:21;20.20;;;17.37;;
10232;SDS011;5161;48.174;11.756;2023-10-19T05:20:48;21.00;;;16.87;;
10232;SDS011;5161;48.174;11.756;2023-10-19T05:23:15;23.73;;;17.03;;
10232;SDS011;5161;48.174;11.756;2023-10-19T05:25:41;20.70;;;16.17;;
10232;SDS011;5161;48.174;11.756;2023-10-19T05:28:07;18.57;;;16.20;;
10232;SDS011;5161;48.174;11.756;2023-10-19T05:30:33;20.10;;;16.70;;
10232;SDS011;5161;48.174;11.756;2023-10-19T05:33:00;19.53;;;16.50;;
10232;SDS011;5161;48.174;11.756;2023-10-19T05:35:28;20.20;;;16.33;;
10232;SDS011;5161;48.174;11.756;2023-10-19T05:37:56;21.03;;;16.60;;
10232;SDS011;5161;48.174;11.756;2023-10-19T05:40:23;20.37;;;16.77;;
10232;SDS011;5161;48.174;11.756;2023-10-19T05:42:54;19.07;;;16.57;;
10232;SDS011;5161;48.174;11.756;2023-10-19T05:45:20;19.23;;;16.63;;
10232;SDS011;5161;48.174;11.756;2023-10-19T05:47:45;18.70;;;16.20;;
10232;SDS011;5161;48.174;11.756;2023-10-19T05:50:11;19.83;;;16.50;;
10232;SDS011;5161;48.174;11.756;2023-10-19T05:52:42;18.60;;;16.00;;
10232;SDS011;5161;48.174;11.756;2023-10-19T05:55:12;19.17;;;16.23;;
10232;SDS011;5161;48.174;11.756;2023-10-19T05:57:37;19.47;;;16.57;;
10232;SDS011;5161;48.174;11.756;2023-10-19T06:00:06;17.93;;;15.60;;
10232;SDS011;5161;48.174;11.756;2023-10-19T06:02:42;20.10;;;17.98;;
10232;SDS011;5161;48.174;11.756;2023-10-19T06:05:09;19.93;;;16.37;;
10232;SDS011;5161;48.174;11.756;2023-10-19T06:07:35;20.10;;;16.17;;
10232;SDS011;5161;48.174;11.756;2023-10-19T06:10:01;18.70;;;16.57;;
10232;SDS011;5161;48.174;11.756;2023-10-19T06:12:34;17.87;;;15.60;;
10232;SDS011;5161;48.174;11.756;2023-10-19T06:15:02;21.23;;;16.30;;
10232;SDS011;5161;48.174;11.756;2023-10-19T06:17:39;20.70;;;16.27;;
10232;SDS011;5161;48.174;11.756;2023-10-19T06:20:06;19.90;;;15.90;;
10232;SDS011;5161;48.174;11.756;2023-10-19T06:22:45;19.60;;;15.97;;
10232;SDS011;5161;48.174;11.756;2023-10-19T06:25:15;17.77;;;15.30;;
10232;SDS011;5161;48.174;11.756;2023-10-19T06:27:42;20.07;;;15.80;;
10232;SDS011;5161;48.174;11.756;2023-10-19T06:30:08;19.23;;;16.10;;
10232;SDS011;5161;48.174;11.756;2023-10-19T06:32:35;16.93;;;15.13;;
10232;SDS011;5161;48.174;11.756;2023-10-19T06:35:02;17.50;;;14.30;;
10232;SDS011;5161;48.174;11.756;2023-10-19T06:37:28;16.37;;;14.40;;
10232;SDS011;5161;48.174;11.756;2023-10-19T06:39:53;16.47;;;14.53;;
10232;SDS011;5161;48.174;11.756;2023-10-19T06:42:19;15.43;;;13.80;;
10232;SDS011;5161;48.174;11.756;2023-10-19T06:44:44;15.87;;;14.00;;
10232;SDS011;5161;48.174;11.756;2023-10-19T06:47:10;18.87;;;14.40;;
10232;SDS011;5161;48.174;11.756;2023-10-19T06:49:37;22.27;;;14.00;;
10232;SDS011;5161;48.174;11.756;2023-10-19T06:52:03;18.20;;;13.60;;
10232;SDS011;5161;48.174;11.756;2023-10-19T06:54:30;16.07;;;14.37;;
10232;SDS011;5161;48.174;11.756;2023-10-19T06:56:56;17.97;;;14.37;;
10232;SDS011;5161;48.174;11.756;2023-10-19T06:59:21;16.53;;;14.63;;
10232;SDS011;5161;48.174;11.756;2023-10-19T07:01:49;17.77;;;15.37;;
10232;SDS011;5161;48.174;11.756;2023-10-19T07:04:15;19.67;;;14.97;;
10232;SDS011;5161;48.174;11.756;2023-10-19T07:06:40;15.73;;;14.07;;
10232;SDS011;5161;48.174;11.756;2023-10-19T07:09:06;17.10;;;14.33;;
10232;SDS011;5161;48.174;11.756;2023-10-19T07:11:32;16.30;;;14.33;;
10232;SDS011;5161;48.174;11.756;2023-10-19T07:14:00;16.77;;;14.83;;
10232;SDS011;5161;48.174;11.756;2023-10-19T07:16:26;17.40;;;14.77;;
10232;SDS011;5161;48.174;11.756;2023-10-19T07:18:51;17.83;;;14.77;;
10232;SDS011;5161;48.174;11.756;2023-10-19T07:21:18;14.37;;;12.87;;
10232;SDS011;5161;48.174;11.756;2023-10-19T07:23:44;15.73;;;13.37;;
10232;SDS011;5161;48.174;11.756;2023-10-19T07:26:10;14.67;;;13.17;;
10232;SDS011;5161;48.174;11.756;2023-10-19T07:28:38;15.37;;;13.50;;
10232;SDS011;5161;48.174;11.756;2023-10-19T07:31:04;14.93;;;12.30;;
10232;SDS011;5161;48.174;11.756;2023-10-19T07:33:37;16.40;;;13.33;;
10232;SDS011;5161;48.174;11.756;2023-10-19T07:36:11;15.90;;;13.67;;
10232;SDS011;5161;48.174;11.756;2023-10-19T07:38:39;18.73;;;13.80;;
10232;SDS011;5161;48.174;11.756;2023-10-19T07:41:05;17.10;;;14.20;;
10232;SDS011;5161;48.174;11.756;2023-10-19T07:43:30;17.30;;;13.80;;
10232;SDS011;5161;48.174;11.756;2023-10-19T07:45:56;19.10;;;14.33;;
10232;SDS011;5161;48.174;11.756;2023-10-19T07:48:22;17.13;;;14.00;;
10232;SDS011;5161;48.174;11.756;2023-10-19T07:50:47;20.57;;;13.90;;
10232;SDS011;5161;48.174;11.756;2023-10-19T07:53:13;15.23;;;13.50;;
10232;SDS011;5161;48.174;11.756;2023-10-19T07:55:38;17.27;;;12.03;;
10232;SDS011;5161;48.174;11.756;2023-10-19T07:58:04;19.93;;;13.17;;
10232;SDS011;5161;48.174;11.756;2023-10-19T08:00:31;17.20;;;12.63;;
10232;SDS011;5161;48.174;11.756;2023-10-19T08:03:00;15.27;;;12.47;;
10232;SDS011;5161;48.174;11.756;2023-10-19T08:05:26;17.10;;;12.97;;
10232;SDS011;5161;48.174;11.756;2023-10-19T08:07:52;16.03;;;12.83;;
10232;SDS011;5161;48.174;11.756;2023-10-19T08:10:18;14.83;;;12.47;;
10232;SDS011;5161;48.174;11.756;2023-10-19T08:12:45;13.07;;;11.77;;
10232;SDS011;5161;48.174;11.756;2023-10-19T08:15:12;13.73;;;11.00;;
10232;SDS011;5161;48.174;11.756;2023-10-19T08:17:40;12.97;;;11.33;;
10232;SDS011;5161;48.174;11.756;2023-10-19T08:20:08;13.27;;;11.33;;
10232;SDS011;5161;48.174;11.756;2023-10-19T08:22:41;16.13;;;11.20;;
10232;SDS011;5161;48.174;11.756;2023-10-19T08:25:13;13.87;;;11.50;;
10232;SDS011;5161;48.174;11.756;2023-10-19T08:27:42;14.67;;;11.57;;
10232;SDS011;5161;48.174;11.756;2023-10-19T08:30:13;13.43;;;10.70;;
10232;SDS011;5161;48.174;11.756;2023-10-19T08:32:40;11.47;;;10.27;;
10232;SDS011;5161;48.174;11.756;2023-10-19T08:35:06;11.63;;;9.93;;
10232;SDS011;5161;48.174;11.756;2023-10-19T08:37:33;12.63;;;9.93;;
10232;SDS011;5161;48.174;11.756;2023-10-19T08:39:59;11.63;;;10.37;;
10232;SDS011;5161;48.174;11.756;2023-10-19T08:42:26;11.57;;;9.93;;
10232;SDS011;5161;48.174;11.756;2023-10-19T08:44:55;12.97;;;11.67;;
10232;SDS011;5161;48.174;11.756;2023-10-19T08:47:21;17.20;;;14.40;;
10232;SDS011;5161;48.174;11.756;2023-10-19T08:49:50;22.30;;;17.00;;
10232;SDS011;5161;48.174;11.756;2023-10-19T08:52:17;20.60;;;15.13;;
10232;SDS011;5161;48.174;11.756;2023-10-19T08:54:44;18.53;;;13.60;;
10232;SDS011;5161;48.174;11.756;2023-10-19T08:57:10;75.17;;;48.00;;
10232;SDS011;5161;48.174;11.756;2023-10-19T08:59:36;34.27;;;26.07;;
10232;SDS011;5161;48.174;11.756;2023-10-19T09:02:03;41.00;;;31.17;;
10232;SDS011;5161;48.174;11.756;2023-10-19T09:04:29;26.40;;;21.17;;
10232;SDS011;5161;48.174;11.756;2023-10-19T09:06:55;18.97;;;14.67;;
10232;SDS011;5161;48.174;11.756;2023-10-19T09:09:20;15.60;;;12.57;;
10232;SDS011;5161;48.174;11.756;2023-10-19T09:11:50;17.07;;;12.77;;
10232;SDS011;5161;48.174;11.756;2023-10-19T09:14:30;13.50;;;11.30;;
10232;SDS011;5161;48.174;11.756;2023-10-19T09:17:08;15.30;;;11.17;;
10232;SDS011;5161;48.174;11.756;2023-10-19T09:19:42;18.10;;;12.00;;
10232;SDS011;5161;48.174;11.756;2023-10-19T09:22:08;12.77;;;10.67;;
10232;SDS011;5161;48.174;11.756;2023-10-19T09:24:47;11.70;;;10.47;;
10232;SDS011;5161;48.174;11.756;2023-10-19T09:27:16;13.83;;;11.40;;
10232;SDS011;5161;48.174;11.756;2023-10-19T09:29:42;12.00;;;10.90;;
10232;SDS011;5161;48.174;11.756;2023-10-19T09:32:08;11.73;;;10.53;;
10232;SDS011;5161;48.174;11.756;2023-10-19T09:34:35;12.10;;;10.90;;
10232;SDS011;5161;48.174;11.756;2023-10-19T09:37:01;12.27;;;11.07;;
10232;SDS011;5161;48.174;11.756;2023-10-19T09:39:31;13.33;;;10.77;;
10232;SDS011;5161;48.174;11.756;2023-10-19T09:42:05;12.37;;;10.63;;
10232;SDS011;5161;48.174;11.756;2023-10-19T09:44:39;16.23;;;11.73;;
10232;SDS011;5161;48.174;11.756;2023-10-19T09:47:10;14.13;;;11.60;;
10232;SDS011;5161;48.174;11.756;2023-10-19T09:49:41;12.50;;;11.13;;
10232;SDS011;5161;48.174;11.756;2023-10-19T09:52:08;12.53;;;11.33;;
10232;SDS011;5161;48.174;11.756;2023-10-19T09:55:18;17.53;;;12.53;;
10232;SDS011;5161;48.174;11.756;2023-10-19T09:57:33;15.20;;;12.90;;
10232;SDS011;5161;48.174;11.756;2023-10-19T10:00:03;14.17;;;12.77;;
10232;SDS011;5161;48.174;11.756;2023-10-19T10:02:47;16.47;;;12.20;;
10232;SDS011;5161;48.174;11.756;2023-10-19T10:10:48;13.37;;;11.97;;
10232;SDS011;5161;48.174;11.756;2023-10-19T10:15:53;24.87;;;22.17;;
10232;SDS011;5161;48.174;11.756;2023-10-19T10:18:20;18.73;;;16.73;;
10232;SDS011;5161;48.174;11.756;2023-10-19T10:21:08;14.07;;;12.57;;
10232;SDS011;5161;48.174;11.756;2023-10-19T10:23:41;17.13;;;12.13;;
10232;SDS011;5161;48.174;11.756;2023-10-19T10:26:07;20.87;;;16.37;;
10232;SDS011;5161;48.174;11.756;2023-10-19T10:28:37;20.97;;;16.93;;
10232;SDS011;5161;48.174;11.756;2023-10-19T10:31:06;19.20;;;13.90;;
10232;SDS011;5161;48.174;11.756;2023-10-19T10:33:41;17.17;;;15.37;;
10232;SDS011;5161;48.174;11.756;2023-10-19T10:36:15;19.90;;;16.10;;
10232;SDS011;5161;48.174;11.756;2023-10-19T10:38:50;14.90;;;13.40;;
10232;SDS011;5161;48.174;11.756;2023-10-19T10:41:22;13.90;;;12.20;;
10232;SDS011;5161;48.174;11.756;2023-10-19T10:43:57;13.93;;;11.43;;
10232;SDS011;5161;48.174;11.756;2023-10-19T10:46:26;12.10;;;10.93;;
10232;SDS011;5161;48.174;11.756;2023-10-19T10:48:54;12.70;;;11.33;;
10232;SDS011;5161;48.174;11.756;2023-10-19T10:53:47;14.17;;;11.37;;
10232;SDS011;5161;48.174;11.756;2023-10-19T10:56:18;13.13;;;11.23;;
10232;SDS011;5161;48.174;11.756;2023-10-19T10:58:44;13.87;;;11.40;;
10232;SDS011;5161;48.174;11.756;2023-10-19T11:01:10;12.23;;;10.93;;
10232;SDS011;5161;48.174;11.756;2023-10-19T11:03:36;12.57;;;11.37;;
10232;SDS011;5161;48.174;11.756;2023-10-19T11:06:06;12.77;;;11.37;;
10232;SDS011;5161;48.174;11.756;2023-10-19T11:08:35;12.70;;;10.87;;
10232;SDS011;5161;48.174;11.756;2023-10-19T11:11:08;12.03;;;10.73;;
10232;SDS011;5161;48.174;11.756;2023-10-19T11:13:38;12.83;;;11.27;;
10232;SDS011;5161;48.174;11.756;2023-10-19T11:16:05;11.13;;;10.13;;
10232;SDS011;5161;48.174;11.756;2023-10-19T11:18:39;14.93;;;11.50;;
10232;SDS011;5161;48.174;11.756;2023-10-19T11:21:11;13.27;;;11.37;;
10232;SDS011;5161;48.174;11.756;2023-10-19T11:26:05;14.87;;;13.00;;
10232;SDS011;5161;48.174;11.756;2023-10-19T11:28:31;17.83;;;14.30;;
10232;SDS011;5161;48.174;11.756;2023-10-19T11:31:14;15.80;;;13.87;;
10232;SDS011;5161;48.174;11.756;2023-10-19T11:33:42;17.73;;;14.60;;
10232;SDS011;5161;48.174;11.756;2023-10-19T11:36:08;16.27;;;14.57;;
10232;SDS011;5161;48.174;11.756;2023-10-19T11:38:37;16.23;;;14.50;;
10232;SDS011;5161;48.174;11.756;2023-10-19T11:41:06;15.47;;;13.27;;
10232;SDS011;5161;48.174;11.756;2023-10-19T11:43:32;15.73;;;12.80;;
10232;SDS011;5161;48.174;11.756;2023-10-19T11:45:59;13.77;;;12.33;;
10232;SDS011;5161;48.174;11.756;2023-10-19T11:48:25;17.00;;;12.90;;
10232;SDS011;5161;48.174;11.756;2023-10-19T11:50:51;14.63;;;12.77;;
10232;SDS011;5161;48.174;11.756;2023-10-19T11:53:17;17.80;;;12.93;;
10232;SDS011;5161;48.174;11.756;2023-10-19T11:55:42;15.73;;;12.73;;
10232;SDS011;5161;48.174;11.756;2023-10-19T11:58:08;15.53;;;13.10;;
10232;SDS011;5161;48.174;11.756;2023-10-19T12:00:39;15.77;;;13.20;;
10232;SDS011;5161;48.174;11.756;2023-10-19T12:03:06;15.10;;;11.90;;
10232;SDS011;5161;48.174;11.756;2023-10-19T12:05:31;13.07;;;10.93;;
10232;SDS011;5161;48.174;11.756;2023-10-19T12:08:02;14.23;;;11.03;;
10232;SDS011;5161;48.174;11.756;2023-10-19T12:10:27;13.97;;;10.83;;
10232;SDS011;5161;48.174;11.756;2023-10-19T12:13:00;13.53;;;11.03;;
10232;SDS011;5161;48.174;11.756;2023-10-19T12:15:27;14.13;;;11.17;;
10232;SDS011;5161;48.174;11.756;2023-10-19T12:17:52;14.37;;;11.40;;
10232;SDS011;5161;48.174;11.756;2023-10-19T12:20:19;14.40;;;10.40;;
10232;SDS011;5161;48.174;11.756;2023-10-19T12:22:46;11.83;;;10.13;;
10232;SDS011;5161;48.174;11.756;2023-10-19T12:25:13;13.67;;;10.07;;
10232;SDS011;5161;48.174;11.756;2023-10-19T12:27:40;11.40;;;9.70;;
10232;SDS011;5161;48.174;11.756;2023-10-19T12:30:05;11.17;;;9.60;;
10232;SDS011;5161;48.174;11.756;2023-10-19T12:32:42;9.33;;;8.43;;
10232;SDS011;5161;48.174;11.756;2023-10-19T12:35:08;8.97;;;7.63;;
10232;SDS011;5161;48.174;11.756;2023-10-19T12:37:37;9.07;;;8.10;;
10232;SDS011;5161;48.174;11.756;2023-10-19T12:40:14;13.13;;;8.10;;
10232;SDS011;5161;48.174;11.756;2023-10-19T12:42:53;12.43;;;8.00;;
10232;SDS011;5161;48.174;11.756;2023-10-19T12:45:22;11.03;;;7.97;;
10232;SDS011;5161;48.174;11.756;2023-10-19T12:47:49;7.53;;;6.83;;
10232;SDS011;5161;48.174;11.756;2023-10-19T12:50:16;8.20;;;7.40;;
10232;SDS011;5161;48.174;11.756;2023-10-19T12:52:49;7.63;;;6.40;;
10232;SDS011;5161;48.174;11.756;2023-10-19T12:55:15;6.87;;;6.27;;
10232;SDS011;5161;48.174;11.756;2023-10-19T12:57:42;7.40;;;6.20;;
10232;SDS011;5161;48.174;11.756;2023-10-19T13:00:07;8.03;;;6.13;;
10232;SDS011;5161;48.174;11.756;2023-10-19T13:02:49;6.53;;;5.87;;
10232;SDS011;5161;48.174;11.756;2023-10-19T13:05:15;6.27;;;5.63;;
10232;SDS011;5161;48.174;11.756;2023-10-19T13:07:43;7.00;;;6.00;;
10232;SDS011;5161;48.174;11.756;2023-10-19T13:10:12;6.10;;;5.50;;
10232;SDS011;5161;48.174;11.756;2023-10-19T13:12:37;8.10;;;5.20;;
10232;SDS011;5161;48.174;11.756;2023-10-19T13:15:03;6.37;;;5.10;;
10232;SDS011;5161;48.174;11.756;2023-10-19T13:17:37;5.50;;;4.80;;
10232;SDS011;5161;48.174;11.756;2023-10-19T13:20:03;5.83;;;4.50;;
10232;SDS011;5161;48.174;11.756;2023-10-19T13:22:41;5.43;;;4.93;;
10232;SDS011;5161;48.174;11.756;2023-10-19T13:25:06;6.77;;;5.03;;
10232;SDS011;5161;48.174;11.756;2023-10-19T13:27:34;7.10;;;4.70;;
10232;SDS011;5161;48.174;11.756;2023-10-19T13:30:00;6.63;;;5.10;;
10232;SDS011;5161;48.174;11.756;2023-10-19T13:32:29;6.73;;;4.67;;
10232;SDS011;5161;48.174;11.756;2023-10-19T13:34:56;5.97;;;4.63;;
10232;SDS011;5161;48.174;11.756;2023-10-19T13:37:21;5.53;;;4.97;;
10232;SDS011;5161;48.174;11.756;2023-10-19T13:39:47;6.03;;;5.53;;
10232;SDS011;5161;48.174;11.756;2023-10-19T13:42:14;6.27;;;5.70;;
10232;SDS011;5161;48.174;11.756;2023-10-19T13:44:39;7.17;;;6.07;;
10232;SDS011;5161;48.174;11.756;2023-10-19T13:47:05;8.77;;;7.63;;
10232;SDS011;5161;48.174;11.756;2023-10-19T13:49:33;12.13;;;10.93;;
10232;SDS011;5161;48.174;11.756;2023-10-19T13:52:00;17.50;;;11.50;;
10232;SDS011;5161;48.174;11.756;2023-10-19T13:54:25;17.20;;;12.77;;
10232;SDS011;5161;48.174;11.756;2023-10-19T13:56:51;14.20;;;12.73;;
10232;SDS011;5161;48.174;11.756;2023-10-19T13:59:17;15.77;;;13.60;;
10232;SDS011;5161;48.174;11.756;2023-10-19T14:01:43;17.33;;;13.60;;
10232;SDS011;5161;48.174;11.756;2023-10-19T14:04:08;16.53;;;14.10;;
10232;SDS011;5161;48.174;11.756;2023-10-19T14:06:35;14.57;;;13.07;;
10232;SDS011;5161;48.174;11.756;2023-10-19T14:09:00;20.67;;;15.03;;
10232;SDS011;5161;48.174;11.756;2023-10-19T14:11:26;17.13;;;15.33;;
10232;SDS011;5161;48.174;11.756;2023-10-19T14:13:52;17.67;;;15.80;;
10232;SDS011;5161;48.174;11.756;2023-10-19T14:16:18;20.00;;;16.47;;
10232;SDS011;5161;48.174;11.756;2023-10-19T14:18:43;21.00;;;16.30;;
10232;SDS011;5161;48.174;11.756;2023-10-19T14:21:15;20.17;;;15.67;;
10232;SDS011;5161;48.174;11.756;2023-10-19T14:23:43;17.70;;;15.83;;
10232;SDS011;5161;48.174;11.756;2023-10-19T14:26:10;20.33;;;16.03;;
10232;SDS011;5161;48.174;11.756;2023-10-19T14:28:36;17.90;;;15.67;;
10232;SDS011;5161;48.174;11.756;2023-10-19T14:31:03;18.13;;;15.13;;
10232;SDS011;5161;48.174;11.756;2023-10-19T14:33:32;18.53;;;15.63;;
10232;SDS011;5161;48.174;11.756;2023-10-19T14:36:00;17.77;;;15.93;;
10232;SDS011;5161;48.174;11.756;2023-10-19T14:38:26;19.00;;;16.23;;
10232;SDS011;5161;48.174;11.756;2023-10-19T14:40:52;19.03;;;16.13;;
10232;SDS011;5161;48.174;11.756;2023-10-19T14:43:18;21.07;;;18.37;;
10232;SDS011;5161;48.174;11.756;2023-10-19T14:45:44;20.13;;;17.27;;
10232;SDS011;5161;48.174;11.756;2023-10-19T14:48:09;21.80;;;19.50;;
10232;SDS011;5161;48.174;11.756;2023-10-19T14:50:36;21.20;;;19.00;;